Hartsfield Jackson Atlanta International Airport
KATL : now visible

Airfield :











YOU CAN JOIN US ON...

 
LOGIN :

Register | Disclaimer

   EN    FR    IT 

 









Legend :    VFR   Marginal VFR   IFR   Intensive IFR   Very Intensive IFR
Visi :
Ceiling :
>= 8 km
>= 3000ft
5 to 8 km
1000 to 3000 ft
1500m to 5 km
500 to 1000 ft
800 to 1500m
200 to 500 ft
< 800m
< 200 ft
Symbols :   Thunderstorms  Fog  Heavy snow  Heavy precipitations  Wind > 20 kt






- Airport Elevation : 1026 ft
- IATA code : ATL


KATL - Hartsfield Jackson Atlanta International

CURRENT METAR :
  • 202152Z 26010KT 10SM SCT040 BKN060 BKN070 BKN250 28/21 A2987 RMK AO2 SLP106 T02780206

EXPIRED METARs :
  • 202052Z 27009KT 10SM FEW024 BKN055 BKN080 27/22 A2986 RMK AO2 SLP102 MDT SW-W T02720217 52001
  • 201952Z 30013KT 10SM FEW027 BKN033 BKN055 28/21 A2987 RMK AO2 SLP103 T02780206

TAF KATL
Valid from the 20 at 22:00 until the 22 at 00:00 UTC


202156Z 2022/2124 28010KT P6SM SCT030 BKN060
FM210200 25005KT P6SM SCT035 SCT150 BKN250
FM210900 24007KT P6SM SCT006 BKN015
FM211700 24011G18KT P6SM VCSH SCT035 BKN050
PROB30 2118/2124 VRB10G20KT 4SM TSRA BKN025CB
KZTL FIR / North America



MET'MAP, your aeronautical weather chart ! - Copyright ORBIFLY December 2007 - Disclaimer

ORBIFLY MET'MAP TEAM :

Programming & Development : Alexandra Zaïnal
Concept & original design : Baudouin d'Aumeries
Assistance for programming : Marc-Olivier Méhu
Technical & hardware support : Manuel Goepfert

Contact : metmap@orbifly.com




SOURCES & CREDITS :

   NOAA       Earth
Advisory